Meteo Giornale » Osservazioni meteo Bosnia-Erzegovina » Tuzla

ore: 13:30 - Osservazioni Meteo Tuzla
Lat. 44° 33' N Lon. 18° 42' E Alt. 306 metri s.l.m.

poco_nuvoloso Europe/Sarajevo

30 °C

Poco Nuvoloso

Temp. 24 Ore

13 °C

30 °C

Nord

5.5 Km/h

Dew point 15 °C

Umidità 40 %

Visibilità  10 Km

Il sole sorge alle ore 05:17

Il sole tramonta alle ore 20:25

Data e Ora Cielo e Fenomeni T °C DP °C Um. % Pres. hPa Vis. km Vento km/h
Oggi h: 13:30 poco_nuvoloso Poco Nuvoloso 30 15 40 1018 10 N 5.5
Oggi h: 13:00 poco_nuvoloso Poco Nuvoloso 29 15 42 1018 10 N 3.7
Oggi h: 12:30 poco_nuvoloso Poco Nuvoloso 29 17 48 1019 10 N 5.5
Oggi h: 12:00 poco_nuvoloso Poco Nuvoloso 28 16 48 1019 10 N 5.5
Oggi h: 11:30 poco_nuvoloso Poco Nuvoloso 27 17 54 1019 10 N 3.7
Oggi h: 11:00 poco_nuvoloso Poco Nuvoloso 26 17 57 1019 10 N 3.7
Oggi h: 10:30 poco_nuvoloso Poco Nuvoloso 25 18 65 1019 10 N 3.7
Oggi h: 10:00 poco_nuvoloso Poco Nuvoloso 24 18 69 1019 10 N 3.7
Oggi h: 09:30 poco_nuvoloso Poco Nuvoloso 23 18 73 1019 10 N 5.5
Oggi h: 09:00 poco_nuvoloso Poco Nuvoloso 21 19 88 1019 10 N 3.7
Oggi h: 08:30 poco_nuvoloso Poco Nuvoloso 19 18 93 1019 8 N 3.7
Oggi h: 08:00 foschia Foschia 17 16 93 1019 2 N 3.7
Oggi h: 07:30 foschia Foschia 17 16 93 1019 3 N 1.8
Oggi h: 07:00 foschia Foschia 15 14 93 1018 2 N 1.8
Oggi h: 06:30 nebbia Nebbia 14 14 100 1018 0.4 N 1.8
Oggi h: 06:00 nebbia Nebbia 13 13 100 1018 0.5 N 3.7
Oggi h: 05:30 nebbia Nebbia a Strati 13 13 100 1018 1 N 1.8
Oggi h: 05:00 nebbia Nebbia 14 14 100 1018 0.4 N 0
Oggi h: 04:30 nebbia Nebbia 13 13 100 1018 0.6 N 1.8
Oggi h: 00:00 sereno Sereno 17 16 93 1018 6 N 3.7
Ieri h: 23:00 sereno Sereno 17 16 93 1018 8 N 1.8
Ieri h: 22:30 sereno Sereno 18 17 93 1018 10 N 0
Ieri h: 22:00 sereno Sereno 18 16 88 1017 10 N 0
Ieri h: 21:30 sereno Sereno 20 17 82 1017 10 N 0
Ieri h: 21:00 sereno Sereno 21 18 82 1017 10 N 3.7
Ieri h: 20:30 poco_nuvoloso Poco Nuvoloso 22 18 78 1017 10 N 3.7
Ieri h: 20:00 poco_nuvoloso Poco Nuvoloso 23 19 78 1016 10 E 7.4
Ieri h: 19:30 poco_nuvoloso Poco Nuvoloso 25 18 65 1016 10 E/SE 7.4
Ieri h: 19:00 poco_nuvoloso Poco Nuvoloso 27 17 54 1016 10 N 3.7
Ieri h: 18:30 poco_nuvoloso Poco Nuvoloso 27 15 47 1016 10 N 5.5
Ieri h: 18:00 poco_nuvoloso Poco Nuvoloso 28 15 45 1016 10 N 5.5
Ieri h: 17:30 nuvoloso Nuvoloso 28 14 42 1016 10 N 5.5
Ieri h: 17:00 nuvoloso Nuvoloso 28 15 45 1016 10 N 3.7
Ieri h: 16:30 nuvoloso Nuvoloso 28 14 42 1016 10 N 3.7
Ieri h: 16:00 poco_nuvoloso Poco Nuvoloso 29 15 42 1016 10 N 5.5
Ieri h: 15:30 poco_nuvoloso Poco Nuvoloso 27 14 44 1016 10 N 5.5
Ieri h: 15:00 poco_nuvoloso Poco Nuvoloso 28 14 42 1016 10 N 5.5